Terminal Aerodrome Forecast
Issued by NWS

Home | Current Version | Previous Version | Text Only | Print | Product List | Glossary On
Versions: 1 2 3 4 5 6 7 8 9 10 11 12
000
FTUS42 KILM 212300
TAFCRE
TAF
KCRE 212323Z 2200/2224 04004KT P6SM SKC
     FM220600 05005KT P6SM SKC
     FM221300 06007KT P6SM SKC
     FM221800 11006KT P6SM SKC=

USA.gov is the U.S. government's official web portal to all federal, state and local government web resources and services.